sensor_id;sensor_type;location;lat;lon;timestamp;P1;durP1;ratioP1;P2;durP2;ratioP2
42742;SDS011;28397;44.552;-0.848;2023-09-18T00:00:01;7.22;;;4.55;;
42742;SDS011;28397;44.552;-0.848;2023-09-18T00:02:30;10.98;;;4.90;;
42742;SDS011;28397;44.552;-0.848;2023-09-18T00:04:56;6.82;;;4.60;;
42742;SDS011;28397;44.552;-0.848;2023-09-18T00:07:22;9.50;;;4.70;;
42742;SDS011;28397;44.552;-0.848;2023-09-18T00:09:47;9.48;;;4.30;;
42742;SDS011;28397;44.552;-0.848;2023-09-18T00:12:14;8.77;;;4.72;;
42742;SDS011;28397;44.552;-0.848;2023-09-18T00:14:39;8.82;;;4.80;;
42742;SDS011;28397;44.552;-0.848;2023-09-18T00:17:06;6.50;;;4.43;;
42742;SDS011;28397;44.552;-0.848;2023-09-18T00:19:32;7.88;;;4.45;;
42742;SDS011;28397;44.552;-0.848;2023-09-18T00:21:58;8.63;;;4.47;;
42742;SDS011;28397;44.552;-0.848;2023-09-18T00:24:26;7.47;;;4.47;;
42742;SDS011;28397;44.552;-0.848;2023-09-18T00:26:52;5.88;;;4.20;;
42742;SDS011;28397;44.552;-0.848;2023-09-18T00:29:18;5.95;;;4.00;;
42742;SDS011;28397;44.552;-0.848;2023-09-18T00:31:44;8.93;;;4.47;;
42742;SDS011;28397;44.552;-0.848;2023-09-18T00:34:10;9.63;;;4.43;;
42742;SDS011;28397;44.552;-0.848;2023-09-18T00:36:35;6.65;;;4.25;;
42742;SDS011;28397;44.552;-0.848;2023-09-18T00:39:01;9.80;;;4.20;;
42742;SDS011;28397;44.552;-0.848;2023-09-18T00:41:28;8.52;;;4.20;;
42742;SDS011;28397;44.552;-0.848;2023-09-18T00:43:54;10.35;;;4.15;;
42742;SDS011;28397;44.552;-0.848;2023-09-18T00:46:19;6.07;;;3.72;;
42742;SDS011;28397;44.552;-0.848;2023-09-18T00:48:46;7.60;;;3.90;;
42742;SDS011;28397;44.552;-0.848;2023-09-18T00:51:12;7.38;;;4.45;;
42742;SDS011;28397;44.552;-0.848;2023-09-18T00:53:38;6.18;;;3.90;;
42742;SDS011;28397;44.552;-0.848;2023-09-18T00:56:08;4.35;;;3.47;;
42742;SDS011;28397;44.552;-0.848;2023-09-18T00:58:35;6.28;;;3.97;;
42742;SDS011;28397;44.552;-0.848;2023-09-18T01:01:00;5.95;;;3.78;;
42742;SDS011;28397;44.552;-0.848;2023-09-18T01:03:26;7.18;;;3.60;;
42742;SDS011;28397;44.552;-0.848;2023-09-18T01:05:53;8.68;;;3.92;;
42742;SDS011;28397;44.552;-0.848;2023-09-18T01:08:19;7.78;;;3.80;;
42742;SDS011;28397;44.552;-0.848;2023-09-18T01:10:48;7.85;;;3.33;;
42742;SDS011;28397;44.552;-0.848;2023-09-18T01:13:27;5.88;;;3.50;;
42742;SDS011;28397;44.552;-0.848;2023-09-18T01:15:58;6.90;;;3.47;;
42742;SDS011;28397;44.552;-0.848;2023-09-18T01:18:32;8.77;;;3.67;;
42742;SDS011;28397;44.552;-0.848;2023-09-18T01:20:57;8.02;;;3.60;;
42742;SDS011;28397;44.552;-0.848;2023-09-18T01:23:23;5.20;;;3.25;;
42742;SDS011;28397;44.552;-0.848;2023-09-18T01:25:48;9.40;;;4.00;;
42742;SDS011;28397;44.552;-0.848;2023-09-18T01:28:14;5.80;;;3.35;;
42742;SDS011;28397;44.552;-0.848;2023-09-18T01:30:41;5.15;;;3.22;;
42742;SDS011;28397;44.552;-0.848;2023-09-18T01:33:07;5.68;;;3.65;;
42742;SDS011;28397;44.552;-0.848;2023-09-18T01:35:34;5.78;;;3.20;;
42742;SDS011;28397;44.552;-0.848;2023-09-18T01:38:00;8.40;;;3.70;;
42742;SDS011;28397;44.552;-0.848;2023-09-18T01:40:26;4.20;;;3.50;;
42742;SDS011;28397;44.552;-0.848;2023-09-18T01:42:53;7.03;;;3.33;;
42742;SDS011;28397;44.552;-0.848;2023-09-18T01:45:19;7.82;;;3.78;;
42742;SDS011;28397;44.552;-0.848;2023-09-18T01:47:45;8.18;;;4.00;;
42742;SDS011;28397;44.552;-0.848;2023-09-18T01:50:11;8.43;;;4.05;;
42742;SDS011;28397;44.552;-0.848;2023-09-18T01:52:38;4.93;;;3.50;;
42742;SDS011;28397;44.552;-0.848;2023-09-18T01:55:03;9.05;;;3.30;;
42742;SDS011;28397;44.552;-0.848;2023-09-18T01:57:29;5.90;;;3.20;;
42742;SDS011;28397;44.552;-0.848;2023-09-18T01:59:55;7.05;;;3.38;;
42742;SDS011;28397;44.552;-0.848;2023-09-18T02:02:21;6.15;;;3.40;;
42742;SDS011;28397;44.552;-0.848;2023-09-18T02:04:47;6.38;;;3.22;;
42742;SDS011;28397;44.552;-0.848;2023-09-18T02:07:12;6.22;;;3.20;;
42742;SDS011;28397;44.552;-0.848;2023-09-18T02:09:38;4.20;;;2.95;;
42742;SDS011;28397;44.552;-0.848;2023-09-18T02:12:04;7.53;;;3.30;;
42742;SDS011;28397;44.552;-0.848;2023-09-18T02:14:31;5.28;;;3.20;;
42742;SDS011;28397;44.552;-0.848;2023-09-18T02:16:57;6.50;;;3.45;;
42742;SDS011;28397;44.552;-0.848;2023-09-18T02:19:22;5.68;;;3.20;;
42742;SDS011;28397;44.552;-0.848;2023-09-18T02:21:48;6.95;;;3.33;;
42742;SDS011;28397;44.552;-0.848;2023-09-18T02:24:14;4.45;;;3.30;;
42742;SDS011;28397;44.552;-0.848;2023-09-18T02:26:39;5.90;;;3.50;;
42742;SDS011;28397;44.552;-0.848;2023-09-18T02:29:06;5.40;;;3.38;;
42742;SDS011;28397;44.552;-0.848;2023-09-18T02:31:33;5.45;;;3.15;;
42742;SDS011;28397;44.552;-0.848;2023-09-18T02:33:58;5.82;;;2.92;;
42742;SDS011;28397;44.552;-0.848;2023-09-18T02:36:24;6.32;;;3.00;;
42742;SDS011;28397;44.552;-0.848;2023-09-18T02:38:50;6.72;;;3.13;;
42742;SDS011;28397;44.552;-0.848;2023-09-18T02:41:16;6.43;;;3.22;;
42742;SDS011;28397;44.552;-0.848;2023-09-18T02:43:41;6.30;;;2.70;;
42742;SDS011;28397;44.552;-0.848;2023-09-18T02:46:07;5.40;;;2.83;;
42742;SDS011;28397;44.552;-0.848;2023-09-18T02:48:33;5.95;;;3.00;;
42742;SDS011;28397;44.552;-0.848;2023-09-18T02:51:02;8.63;;;2.88;;
42742;SDS011;28397;44.552;-0.848;2023-09-18T02:53:28;4.63;;;2.90;;
42742;SDS011;28397;44.552;-0.848;2023-09-18T02:55:54;5.63;;;2.80;;
42742;SDS011;28397;44.552;-0.848;2023-09-18T02:58:21;4.97;;;2.85;;
42742;SDS011;28397;44.552;-0.848;2023-09-18T03:00:48;6.00;;;2.88;;
42742;SDS011;28397;44.552;-0.848;2023-09-18T03:03:15;4.65;;;2.60;;
42742;SDS011;28397;44.552;-0.848;2023-09-18T03:05:41;4.00;;;2.60;;
42742;SDS011;28397;44.552;-0.848;2023-09-18T03:08:09;6.47;;;3.05;;
42742;SDS011;28397;44.552;-0.848;2023-09-18T03:10:36;5.90;;;2.80;;
42742;SDS011;28397;44.552;-0.848;2023-09-18T03:13:07;4.78;;;2.70;;
42742;SDS011;28397;44.552;-0.848;2023-09-18T03:15:33;4.15;;;2.60;;
42742;SDS011;28397;44.552;-0.848;2023-09-18T03:18:00;7.10;;;2.78;;
42742;SDS011;28397;44.552;-0.848;2023-09-18T03:20:26;5.22;;;2.85;;
42742;SDS011;28397;44.552;-0.848;2023-09-18T03:22:54;4.43;;;2.42;;
42742;SDS011;28397;44.552;-0.848;2023-09-18T03:25:21;5.72;;;2.92;;
42742;SDS011;28397;44.552;-0.848;2023-09-18T03:27:48;5.47;;;2.60;;
42742;SDS011;28397;44.552;-0.848;2023-09-18T03:30:16;4.22;;;2.60;;
42742;SDS011;28397;44.552;-0.848;2023-09-18T03:32:42;6.32;;;2.60;;
42742;SDS011;28397;44.552;-0.848;2023-09-18T03:35:08;3.53;;;2.90;;
42742;SDS011;28397;44.552;-0.848;2023-09-18T03:37:40;4.90;;;2.38;;
42742;SDS011;28397;44.552;-0.848;2023-09-18T03:40:07;3.28;;;2.47;;
42742;SDS011;28397;44.552;-0.848;2023-09-18T03:42:33;4.45;;;2.60;;
42742;SDS011;28397;44.552;-0.848;2023-09-18T03:44:59;4.15;;;2.30;;
42742;SDS011;28397;44.552;-0.848;2023-09-18T03:47:25;6.72;;;2.47;;
42742;SDS011;28397;44.552;-0.848;2023-09-18T03:49:51;6.13;;;2.80;;
42742;SDS011;28397;44.552;-0.848;2023-09-18T03:52:16;3.88;;;2.25;;
42742;SDS011;28397;44.552;-0.848;2023-09-18T03:54:42;5.72;;;2.25;;
42742;SDS011;28397;44.552;-0.848;2023-09-18T03:57:08;6.00;;;2.35;;
42742;SDS011;28397;44.552;-0.848;2023-09-18T03:59:33;3.65;;;2.28;;
42742;SDS011;28397;44.552;-0.848;2023-09-18T04:01:59;3.55;;;2.65;;
42742;SDS011;28397;44.552;-0.848;2023-09-18T04:04:25;3.58;;;2.17;;
42742;SDS011;28397;44.552;-0.848;2023-09-18T04:06:50;3.75;;;2.53;;
42742;SDS011;28397;44.552;-0.848;2023-09-18T04:09:16;3.92;;;2.25;;
42742;SDS011;28397;44.552;-0.848;2023-09-18T04:11:43;3.33;;;2.50;;
42742;SDS011;28397;44.552;-0.848;2023-09-18T04:14:09;6.30;;;2.60;;
42742;SDS011;28397;44.552;-0.848;2023-09-18T04:16:34;3.22;;;2.40;;
42742;SDS011;28397;44.552;-0.848;2023-09-18T04:19:01;3.45;;;2.60;;
42742;SDS011;28397;44.552;-0.848;2023-09-18T04:21:27;6.38;;;2.75;;
42742;SDS011;28397;44.552;-0.848;2023-09-18T04:23:54;6.78;;;2.53;;
42742;SDS011;28397;44.552;-0.848;2023-09-18T04:26:25;4.38;;;2.40;;
42742;SDS011;28397;44.552;-0.848;2023-09-18T04:31:22;4.40;;;2.33;;
42742;SDS011;28397;44.552;-0.848;2023-09-18T04:33:47;5.65;;;2.63;;
42742;SDS011;28397;44.552;-0.848;2023-09-18T04:36:13;4.55;;;2.60;;
42742;SDS011;28397;44.552;-0.848;2023-09-18T04:38:39;7.22;;;2.70;;
42742;SDS011;28397;44.552;-0.848;2023-09-18T04:41:05;4.53;;;2.65;;
42742;SDS011;28397;44.552;-0.848;2023-09-18T04:43:33;3.70;;;2.60;;
42742;SDS011;28397;44.552;-0.848;2023-09-18T04:46:00;4.43;;;2.45;;
42742;SDS011;28397;44.552;-0.848;2023-09-18T04:48:27;3.55;;;2.40;;
42742;SDS011;28397;44.552;-0.848;2023-09-18T04:50:53;4.22;;;2.40;;
42742;SDS011;28397;44.552;-0.848;2023-09-18T04:53:19;5.63;;;2.35;;
42742;SDS011;28397;44.552;-0.848;2023-09-18T04:55:45;3.97;;;2.55;;
42742;SDS011;28397;44.552;-0.848;2023-09-18T04:58:14;3.20;;;2.33;;
42742;SDS011;28397;44.552;-0.848;2023-09-18T05:00:40;3.90;;;2.15;;
42742;SDS011;28397;44.552;-0.848;2023-09-18T05:03:06;4.40;;;2.55;;
42742;SDS011;28397;44.552;-0.848;2023-09-18T05:05:33;5.93;;;2.53;;
42742;SDS011;28397;44.552;-0.848;2023-09-18T05:08:01;4.35;;;2.53;;
42742;SDS011;28397;44.552;-0.848;2023-09-18T05:10:32;5.65;;;2.78;;
42742;SDS011;28397;44.552;-0.848;2023-09-18T05:13:02;4.38;;;2.45;;
42742;SDS011;28397;44.552;-0.848;2023-09-18T05:15:29;4.68;;;2.30;;
42742;SDS011;28397;44.552;-0.848;2023-09-18T05:17:55;5.85;;;2.58;;
42742;SDS011;28397;44.552;-0.848;2023-09-18T05:20:23;4.60;;;2.33;;
42742;SDS011;28397;44.552;-0.848;2023-09-18T05:22:50;3.67;;;2.40;;
42742;SDS011;28397;44.552;-0.848;2023-09-18T05:25:19;7.22;;;2.67;;
42742;SDS011;28397;44.552;-0.848;2023-09-18T05:27:50;6.32;;;2.70;;
42742;SDS011;28397;44.552;-0.848;2023-09-18T05:32:50;4.65;;;2.40;;
42742;SDS011;28397;44.552;-0.848;2023-09-18T05:35:16;3.63;;;2.40;;
42742;SDS011;28397;44.552;-0.848;2023-09-18T05:37:42;4.30;;;2.40;;
42742;SDS011;28397;44.552;-0.848;2023-09-18T05:40:09;5.45;;;2.63;;
42742;SDS011;28397;44.552;-0.848;2023-09-18T05:42:37;3.70;;;2.47;;
42742;SDS011;28397;44.552;-0.848;2023-09-18T05:45:04;4.82;;;2.40;;
42742;SDS011;28397;44.552;-0.848;2023-09-18T05:47:33;4.75;;;2.40;;
42742;SDS011;28397;44.552;-0.848;2023-09-18T05:50:00;3.58;;;2.42;;
42742;SDS011;28397;44.552;-0.848;2023-09-18T05:52:28;5.07;;;2.40;;
42742;SDS011;28397;44.552;-0.848;2023-09-18T05:54:55;4.55;;;2.35;;
42742;SDS011;28397;44.552;-0.848;2023-09-18T05:57:21;6.20;;;2.60;;
42742;SDS011;28397;44.552;-0.848;2023-09-18T05:59:46;4.07;;;2.45;;
42742;SDS011;28397;44.552;-0.848;2023-09-18T06:02:13;4.57;;;2.05;;
42742;SDS011;28397;44.552;-0.848;2023-09-18T06:04:38;4.43;;;2.30;;
42742;SDS011;28397;44.552;-0.848;2023-09-18T06:07:04;4.68;;;2.40;;
42742;SDS011;28397;44.552;-0.848;2023-09-18T06:09:29;5.20;;;2.33;;
42742;SDS011;28397;44.552;-0.848;2023-09-18T06:11:55;3.08;;;2.10;;
42742;SDS011;28397;44.552;-0.848;2023-09-18T06:14:21;4.78;;;2.60;;
42742;SDS011;28397;44.552;-0.848;2023-09-18T06:16:47;2.83;;;2.45;;
42742;SDS011;28397;44.552;-0.848;2023-09-18T06:19:12;5.68;;;2.28;;
42742;SDS011;28397;44.552;-0.848;2023-09-18T06:21:38;4.55;;;2.30;;
42742;SDS011;28397;44.552;-0.848;2023-09-18T06:24:04;4.53;;;2.65;;
42742;SDS011;28397;44.552;-0.848;2023-09-18T06:26:31;5.40;;;2.70;;
42742;SDS011;28397;44.552;-0.848;2023-09-18T06:28:56;3.55;;;2.30;;
42742;SDS011;28397;44.552;-0.848;2023-09-18T06:31:22;5.85;;;2.33;;
42742;SDS011;28397;44.552;-0.848;2023-09-18T06:33:48;3.88;;;2.22;;
42742;SDS011;28397;44.552;-0.848;2023-09-18T06:36:14;2.97;;;2.00;;
42742;SDS011;28397;44.552;-0.848;2023-09-18T06:38:40;4.03;;;2.28;;
42742;SDS011;28397;44.552;-0.848;2023-09-18T06:41:05;2.85;;;2.33;;
42742;SDS011;28397;44.552;-0.848;2023-09-18T06:43:31;3.63;;;2.17;;
42742;SDS011;28397;44.552;-0.848;2023-09-18T06:45:57;3.35;;;2.03;;
42742;SDS011;28397;44.552;-0.848;2023-09-18T06:48:25;4.72;;;2.45;;
42742;SDS011;28397;44.552;-0.848;2023-09-18T06:50:51;2.58;;;2.00;;
42742;SDS011;28397;44.552;-0.848;2023-09-18T06:53:17;6.47;;;2.35;;
42742;SDS011;28397;44.552;-0.848;2023-09-18T06:55:42;5.65;;;2.22;;
42742;SDS011;28397;44.552;-0.848;2023-09-18T06:58:08;4.60;;;2.10;;
42742;SDS011;28397;44.552;-0.848;2023-09-18T07:00:34;4.18;;;1.95;;
42742;SDS011;28397;44.552;-0.848;2023-09-18T07:03:00;2.88;;;2.00;;
42742;SDS011;28397;44.552;-0.848;2023-09-18T07:05:25;6.80;;;2.10;;
42742;SDS011;28397;44.552;-0.848;2023-09-18T07:07:51;3.10;;;2.00;;
42742;SDS011;28397;44.552;-0.848;2023-09-18T07:10:17;4.85;;;2.15;;
42742;SDS011;28397;44.552;-0.848;2023-09-18T07:12:44;3.25;;;2.00;;
42742;SDS011;28397;44.552;-0.848;2023-09-18T07:15:09;3.50;;;2.10;;
42742;SDS011;28397;44.552;-0.848;2023-09-18T07:17:35;5.28;;;2.05;;
42742;SDS011;28397;44.552;-0.848;2023-09-18T07:20:01;4.63;;;2.22;;
42742;SDS011;28397;44.552;-0.848;2023-09-18T07:22:34;3.35;;;2.08;;
42742;SDS011;28397;44.552;-0.848;2023-09-18T07:25:00;5.80;;;2.35;;
42742;SDS011;28397;44.552;-0.848;2023-09-18T07:27:26;4.82;;;2.30;;
42742;SDS011;28397;44.552;-0.848;2023-09-18T07:29:51;7.20;;;2.80;;
42742;SDS011;28397;44.552;-0.848;2023-09-18T07:32:20;5.95;;;2.65;;
42742;SDS011;28397;44.552;-0.848;2023-09-18T07:34:46;6.10;;;2.50;;
42742;SDS011;28397;44.552;-0.848;2023-09-18T07:37:12;7.22;;;2.30;;
42742;SDS011;28397;44.552;-0.848;2023-09-18T07:39:38;7.75;;;2.50;;
42742;SDS011;28397;44.552;-0.848;2023-09-18T07:42:07;5.80;;;2.10;;
42742;SDS011;28397;44.552;-0.848;2023-09-18T07:44:33;3.20;;;1.85;;
42742;SDS011;28397;44.552;-0.848;2023-09-18T07:46:58;6.60;;;2.63;;
42742;SDS011;28397;44.552;-0.848;2023-09-18T07:49:26;6.63;;;2.60;;
42742;SDS011;28397;44.552;-0.848;2023-09-18T07:51:51;5.53;;;2.38;;
42742;SDS011;28397;44.552;-0.848;2023-09-18T07:54:17;6.43;;;2.45;;
42742;SDS011;28397;44.552;-0.848;2023-09-18T07:56:43;6.05;;;2.58;;
42742;SDS011;28397;44.552;-0.848;2023-09-18T07:59:08;8.43;;;2.70;;
42742;SDS011;28397;44.552;-0.848;2023-09-18T08:01:35;5.82;;;2.30;;
42742;SDS011;28397;44.552;-0.848;2023-09-18T08:04:01;5.43;;;2.20;;
42742;SDS011;28397;44.552;-0.848;2023-09-18T08:06:27;7.80;;;2.55;;
42742;SDS011;28397;44.552;-0.848;2023-09-18T08:08:53;5.55;;;2.33;;
42742;SDS011;28397;44.552;-0.848;2023-09-18T08:11:19;4.60;;;2.05;;
42742;SDS011;28397;44.552;-0.848;2023-09-18T08:13:45;4.95;;;1.90;;
42742;SDS011;28397;44.552;-0.848;2023-09-18T08:16:10;6.78;;;2.08;;
42742;SDS011;28397;44.552;-0.848;2023-09-18T08:18:36;6.68;;;1.90;;
42742;SDS011;28397;44.552;-0.848;2023-09-18T08:21:06;5.68;;;1.63;;
42742;SDS011;28397;44.552;-0.848;2023-09-18T08:23:34;5.15;;;1.50;;
42742;SDS011;28397;44.552;-0.848;2023-09-18T08:26:00;4.38;;;1.80;;
42742;SDS011;28397;44.552;-0.848;2023-09-18T08:28:26;4.38;;;1.63;;
42742;SDS011;28397;44.552;-0.848;2023-09-18T08:30:51;6.45;;;1.77;;
42742;SDS011;28397;44.552;-0.848;2023-09-18T08:33:17;5.97;;;1.60;;
42742;SDS011;28397;44.552;-0.848;2023-09-18T08:35:43;6.50;;;1.60;;
42742;SDS011;28397;44.552;-0.848;2023-09-18T08:38:09;5.65;;;1.30;;
42742;SDS011;28397;44.552;-0.848;2023-09-18T08:40:35;4.15;;;1.70;;
42742;SDS011;28397;44.552;-0.848;2023-09-18T08:43:00;7.15;;;1.70;;
42742;SDS011;28397;44.552;-0.848;2023-09-18T08:45:46;5.72;;;1.50;;
42742;SDS011;28397;44.552;-0.848;2023-09-18T08:48:17;5.15;;;1.65;;
42742;SDS011;28397;44.552;-0.848;2023-09-18T08:50:43;3.50;;;1.50;;
42742;SDS011;28397;44.552;-0.848;2023-09-18T08:53:11;4.70;;;1.73;;
42742;SDS011;28397;44.552;-0.848;2023-09-18T08:55:36;5.40;;;1.67;;
42742;SDS011;28397;44.552;-0.848;2023-09-18T08:58:02;4.85;;;1.85;;
42742;SDS011;28397;44.552;-0.848;2023-09-18T09:00:28;3.50;;;1.40;;
42742;SDS011;28397;44.552;-0.848;2023-09-18T09:02:54;5.70;;;1.50;;
42742;SDS011;28397;44.552;-0.848;2023-09-18T09:05:20;6.50;;;1.58;;
42742;SDS011;28397;44.552;-0.848;2023-09-18T09:07:47;5.38;;;1.80;;
42742;SDS011;28397;44.552;-0.848;2023-09-18T09:10:14;3.58;;;1.70;;
42742;SDS011;28397;44.552;-0.848;2023-09-18T09:15:14;3.30;;;1.40;;
42742;SDS011;28397;44.552;-0.848;2023-09-18T09:17:41;3.45;;;1.42;;
42742;SDS011;28397;44.552;-0.848;2023-09-18T09:20:11;4.47;;;1.50;;
42742;SDS011;28397;44.552;-0.848;2023-09-18T09:22:38;5.72;;;1.80;;
42742;SDS011;28397;44.552;-0.848;2023-09-18T09:25:27;4.75;;;1.60;;
42742;SDS011;28397;44.552;-0.848;2023-09-18T09:27:59;7.38;;;1.92;;
42742;SDS011;28397;44.552;-0.848;2023-09-18T09:30:30;6.28;;;1.65;;
42742;SDS011;28397;44.552;-0.848;2023-09-18T09:32:57;5.03;;;1.70;;
42742;SDS011;28397;44.552;-0.848;2023-09-18T09:35:27;5.70;;;1.65;;
42742;SDS011;28397;44.552;-0.848;2023-09-18T09:37:59;5.57;;;1.58;;
42742;SDS011;28397;44.552;-0.848;2023-09-18T09:40:28;7.35;;;1.70;;
42742;SDS011;28397;44.552;-0.848;2023-09-18T09:42:56;4.47;;;1.80;;
42742;SDS011;28397;44.552;-0.848;2023-09-18T09:45:28;6.75;;;1.95;;
42742;SDS011;28397;44.552;-0.848;2023-09-18T09:47:58;5.35;;;1.65;;
42742;SDS011;28397;44.552;-0.848;2023-09-18T09:50:25;6.90;;;2.20;;
42742;SDS011;28397;44.552;-0.848;2023-09-18T09:52:52;5.50;;;1.80;;
42742;SDS011;28397;44.552;-0.848;2023-09-18T09:57:49;6.90;;;2.00;;
42742;SDS011;28397;44.552;-0.848;2023-09-18T10:00:22;6.15;;;1.95;;
42742;SDS011;28397;44.552;-0.848;2023-09-18T10:03:01;4.55;;;1.90;;
42742;SDS011;28397;44.552;-0.848;2023-09-18T10:05:30;5.95;;;2.00;;
42742;SDS011;28397;44.552;-0.848;2023-09-18T10:07:58;6.07;;;2.10;;
42742;SDS011;28397;44.552;-0.848;2023-09-18T10:10:27;6.05;;;1.88;;
42742;SDS011;28397;44.552;-0.848;2023-09-18T10:12:56;5.53;;;1.73;;
42742;SDS011;28397;44.552;-0.848;2023-09-18T10:15:31;6.13;;;1.90;;
42742;SDS011;28397;44.552;-0.848;2023-09-18T10:17:59;6.97;;;2.00;;
42742;SDS011;28397;44.552;-0.848;2023-09-18T10:20:27;5.80;;;1.92;;
42742;SDS011;28397;44.552;-0.848;2023-09-18T10:22:56;7.03;;;1.90;;
42742;SDS011;28397;44.552;-0.848;2023-09-18T10:25:27;5.57;;;1.90;;
42742;SDS011;28397;44.552;-0.848;2023-09-18T10:27:56;5.25;;;2.00;;
42742;SDS011;28397;44.552;-0.848;2023-09-18T10:30:24;6.63;;;1.92;;
42742;SDS011;28397;44.552;-0.848;2023-09-18T10:32:51;5.63;;;2.08;;
42742;SDS011;28397;44.552;-0.848;2023-09-18T10:35:18;8.23;;;2.25;;
42742;SDS011;28397;44.552;-0.848;2023-09-18T10:37:45;11.63;;;2.60;;
42742;SDS011;28397;44.552;-0.848;2023-09-18T10:40:11;7.35;;;2.58;;
42742;SDS011;28397;44.552;-0.848;2023-09-18T10:42:38;11.82;;;3.13;;
42742;SDS011;28397;44.552;-0.848;2023-09-18T10:45:07;7.68;;;2.60;;
42742;SDS011;28397;44.552;-0.848;2023-09-18T10:47:41;9.98;;;2.40;;
42742;SDS011;28397;44.552;-0.848;2023-09-18T10:50:10;8.85;;;2.50;;
42742;SDS011;28397;44.552;-0.848;2023-09-18T10:52:38;8.93;;;2.30;;
42742;SDS011;28397;44.552;-0.848;2023-09-18T10:55:11;10.23;;;2.88;;
42742;SDS011;28397;44.552;-0.848;2023-09-18T10:57:49;14.85;;;3.00;;
42742;SDS011;28397;44.552;-0.848;2023-09-18T11:00:16;49.67;;;9.65;;
42742;SDS011;28397;44.552;-0.848;2023-09-18T11:02:47;35.00;;;7.15;;
42742;SDS011;28397;44.552;-0.848;2023-09-18T11:05:32;11.75;;;2.90;;
42742;SDS011;28397;44.552;-0.848;2023-09-18T11:11:00;6.90;;;2.00;;
42742;SDS011;28397;44.552;-0.848;2023-09-18T11:13:45;7.38;;;1.88;;
42742;SDS011;28397;44.552;-0.848;2023-09-18T11:18:52;7.20;;;1.80;;
42742;SDS011;28397;44.552;-0.848;2023-09-18T11:21:19;6.57;;;1.70;;
42742;SDS011;28397;44.552;-0.848;2023-09-18T11:23:57;5.75;;;1.67;;
42742;SDS011;28397;44.552;-0.848;2023-09-18T11:26:23;9.00;;;1.90;;
42742;SDS011;28397;44.552;-0.848;2023-09-18T11:28:48;8.65;;;1.92;;
42742;SDS011;28397;44.552;-0.848;2023-09-18T11:31:15;5.97;;;1.83;;
42742;SDS011;28397;44.552;-0.848;2023-09-18T11:33:42;9.00;;;2.22;;
42742;SDS011;28397;44.552;-0.848;2023-09-18T11:36:14;7.00;;;1.90;;
42742;SDS011;28397;44.552;-0.848;2023-09-18T11:38:59;8.65;;;2.00;;
42742;SDS011;28397;44.552;-0.848;2023-09-18T11:41:29;6.32;;;2.13;;
42742;SDS011;28397;44.552;-0.848;2023-09-18T11:46:47;7.45;;;2.13;;
42742;SDS011;28397;44.552;-0.848;2023-09-18T11:49:19;10.68;;;2.05;;
42742;SDS011;28397;44.552;-0.848;2023-09-18T11:51:51;6.93;;;1.90;;
42742;SDS011;28397;44.552;-0.848;2023-09-18T11:54:18;5.10;;;1.83;;
42742;SDS011;28397;44.552;-0.848;2023-09-18T11:56:44;8.05;;;2.00;;
42742;SDS011;28397;44.552;-0.848;2023-09-18T11:59:10;9.25;;;2.20;;
42742;SDS011;28397;44.552;-0.848;2023-09-18T12:01:36;7.72;;;2.20;;
42742;SDS011;28397;44.552;-0.848;2023-09-18T12:04:04;10.20;;;2.58;;
42742;SDS011;28397;44.552;-0.848;2023-09-18T12:06:34;9.65;;;2.65;;
42742;SDS011;28397;44.552;-0.848;2023-09-18T12:09:00;11.63;;;2.70;;
42742;SDS011;28397;44.552;-0.848;2023-09-18T12:11:28;14.77;;;3.15;;
42742;SDS011;28397;44.552;-0.848;2023-09-18T12:13:54;8.50;;;2.47;;
42742;SDS011;28397;44.552;-0.848;2023-09-18T12:16:20;12.98;;;3.15;;
42742;SDS011;28397;44.552;-0.848;2023-09-18T12:18:46;8.98;;;2.35;;
42742;SDS011;28397;44.552;-0.848;2023-09-18T12:21:13;8.05;;;2.33;;
42742;SDS011;28397;44.552;-0.848;2023-09-18T12:23:40;8.65;;;2.70;;
42742;SDS011;28397;44.552;-0.848;2023-09-18T12:26:13;8.73;;;2.38;;
42742;SDS011;28397;44.552;-0.848;2023-09-18T12:28:41;12.60;;;3.38;;
42742;SDS011;28397;44.552;-0.848;2023-09-18T12:31:10;11.95;;;2.58;;
42742;SDS011;28397;44.552;-0.848;2023-09-18T12:33:40;12.52;;;2.70;;
42742;SDS011;28397;44.552;-0.848;2023-09-18T12:36:18;10.27;;;2.58;;
42742;SDS011;28397;44.552;-0.848;2023-09-18T12:38:45;9.93;;;2.92;;
42742;SDS011;28397;44.552;-0.848;2023-09-18T12:41:21;9.75;;;2.45;;
42742;SDS011;28397;44.552;-0.848;2023-09-18T12:43:49;9.43;;;2.55;;
42742;SDS011;28397;44.552;-0.848;2023-09-18T12:46:15;8.23;;;2.20;;
42742;SDS011;28397;44.552;-0.848;2023-09-18T12:48:41;14.05;;;3.47;;
42742;SDS011;28397;44.552;-0.848;2023-09-18T12:51:10;11.20;;;2.90;;
42742;SDS011;28397;44.552;-0.848;2023-09-18T12:53:36;11.63;;;2.30;;
42742;SDS011;28397;44.552;-0.848;2023-09-18T12:56:12;7.22;;;1.80;;
42742;SDS011;28397;44.552;-0.848;2023-09-18T12:58:38;7.25;;;1.80;;
42742;SDS011;28397;44.552;-0.848;2023-09-18T13:01:06;6.10;;;1.90;;
42742;SDS011;28397;44.552;-0.848;2023-09-18T13:03:43;10.85;;;2.70;;
42742;SDS011;28397;44.552;-0.848;2023-09-18T13:06:11;9.82;;;2.65;;
42742;SDS011;28397;44.552;-0.848;2023-09-18T13:08:37;9.80;;;2.63;;
42742;SDS011;28397;44.552;-0.848;2023-09-18T13:11:03;8.57;;;2.28;;
42742;SDS011;28397;44.552;-0.848;2023-09-18T13:13:31;10.63;;;2.60;;
42742;SDS011;28397;44.552;-0.848;2023-09-18T13:15:58;7.50;;;1.98;;
42742;SDS011;28397;44.552;-0.848;2023-09-18T13:18:29;8.43;;;2.03;;
42742;SDS011;28397;44.552;-0.848;2023-09-18T13:20:55;7.15;;;1.73;;
42742;SDS011;28397;44.552;-0.848;2023-09-18T13:23:27;5.53;;;1.90;;
42742;SDS011;28397;44.552;-0.848;2023-09-18T13:25:58;9.95;;;2.28;;
42742;SDS011;28397;44.552;-0.848;2023-09-18T13:28:25;8.25;;;2.20;;
42742;SDS011;28397;44.552;-0.848;2023-09-18T13:30:50;6.20;;;1.95;;
42742;SDS011;28397;44.552;-0.848;2023-09-18T13:33:16;5.22;;;1.70;;
42742;SDS011;28397;44.552;-0.848;2023-09-18T13:35:43;8.43;;;1.77;;
42742;SDS011;28397;44.552;-0.848;2023-09-18T13:38:10;7.05;;;1.55;;
42742;SDS011;28397;44.552;-0.848;2023-09-18T13:40:43;7.07;;;1.88;;
42742;SDS011;28397;44.552;-0.848;2023-09-18T13:43:11;7.53;;;2.25;;
42742;SDS011;28397;44.552;-0.848;2023-09-18T13:45:37;8.88;;;2.65;;
42742;SDS011;28397;44.552;-0.848;2023-09-18T13:48:05;6.53;;;1.98;;
42742;SDS011;28397;44.552;-0.848;2023-09-18T13:50:34;6.65;;;1.80;;
42742;SDS011;28397;44.552;-0.848;2023-09-18T13:53:02;9.75;;;2.20;;
42742;SDS011;28397;44.552;-0.848;2023-09-18T13:55:31;11.35;;;2.88;;
42742;SDS011;28397;44.552;-0.848;2023-09-18T13:57:57;9.45;;;2.53;;
42742;SDS011;28397;44.552;-0.848;2023-09-18T14:00:23;8.20;;;2.08;;
42742;SDS011;28397;44.552;-0.848;2023-09-18T14:02:50;9.52;;;2.30;;
42742;SDS011;28397;44.552;-0.848;2023-09-18T14:05:16;8.23;;;2.25;;
42742;SDS011;28397;44.552;-0.848;2023-09-18T14:07:42;7.60;;;1.95;;
42742;SDS011;28397;44.552;-0.848;2023-09-18T14:10:08;10.55;;;2.20;;
42742;SDS011;28397;44.552;-0.848;2023-09-18T14:12:38;10.10;;;2.40;;
42742;SDS011;28397;44.552;-0.848;2023-09-18T14:15:07;8.52;;;2.00;;
42742;SDS011;28397;44.552;-0.848;2023-09-18T14:17:33;6.38;;;1.70;;
42742;SDS011;28397;44.552;-0.848;2023-09-18T14:20:03;7.85;;;2.00;;
42742;SDS011;28397;44.552;-0.848;2023-09-18T14:22:36;6.80;;;1.80;;
42742;SDS011;28397;44.552;-0.848;2023-09-18T14:25:02;5.97;;;1.65;;
42742;SDS011;28397;44.552;-0.848;2023-09-18T14:27:30;9.60;;;2.00;;
42742;SDS011;28397;44.552;-0.848;2023-09-18T14:29:57;10.52;;;2.13;;
42742;SDS011;28397;44.552;-0.848;2023-09-18T14:32:23;7.88;;;1.88;;
42742;SDS011;28397;44.552;-0.848;2023-09-18T14:34:48;9.00;;;2.00;;
42742;SDS011;28397;44.552;-0.848;2023-09-18T14:37:14;6.85;;;2.17;;
42742;SDS011;28397;44.552;-0.848;2023-09-18T14:39:40;7.57;;;2.22;;
42742;SDS011;28397;44.552;-0.848;2023-09-18T14:42:06;7.57;;;2.25;;
42742;SDS011;28397;44.552;-0.848;2023-09-18T14:44:32;7.15;;;2.15;;
42742;SDS011;28397;44.552;-0.848;2023-09-18T14:46:58;7.10;;;2.45;;
42742;SDS011;28397;44.552;-0.848;2023-09-18T14:49:24;9.98;;;2.10;;
42742;SDS011;28397;44.552;-0.848;2023-09-18T14:51:52;7.93;;;2.50;;